Time;durP1;ratioP1;P1;durP2;ratioP2;P2;SDS_P1;SDS_P2;PMS_P1;PMS_P2;Temp;Humidity;BMP_temperature;BMP_pressure;BME280_temperature;BME280_humidity;BME280_pressure;Samples;Min_cycle;Max_cycle;Signal;HPM_P1;HPM_P2
2023/09/02 00:00:54;;;;;;;2.90;2.00;;;20.30;82.80;19.50;96668.00;;;;5025880;28;20203;-81
2023/09/02 00:03:21;;;;;;;1.90;1.70;;;20.30;82.70;19.50;96663.00;;;;5025793;28;20224;-81
2023/09/02 00:05:49;;;;;;;1.60;1.50;;;20.30;82.90;19.40;96663.00;;;;5033321;28;20217;-81
2023/09/02 00:08:17;;;;;;;2.57;1.87;;;20.30;82.90;19.40;96662.00;;;;5025321;28;20207;-81
2023/09/02 00:10:44;;;;;;;2.03;1.83;;;20.30;82.90;19.40;96661.00;;;;5026120;28;20194;-81
2023/09/02 00:13:11;;;;;;;2.40;1.90;;;20.30;82.70;19.40;96666.00;;;;5005004;28;20287;-82
2023/09/02 00:15:41;;;;;;;3.93;1.80;;;20.30;82.70;19.40;96664.00;;;;5028366;28;20218;-81
2023/09/02 00:18:08;;;;;;;3.47;1.53;;;20.30;82.90;19.40;96667.00;;;;5028945;28;20189;-81
2023/09/02 00:20:35;;;;;;;1.70;1.50;;;20.20;83.00;19.40;96664.00;;;;5021536;28;20284;-81
2023/09/02 00:23:04;;;;;;;1.67;1.57;;;20.30;83.10;19.40;96659.00;;;;5028906;28;20705;-82
2023/09/02 00:25:32;;;;;;;2.07;1.70;;;20.20;83.10;19.50;96666.00;;;;5028659;28;20225;-81
2023/09/02 00:27:59;;;;;;;2.77;1.63;;;20.20;83.00;19.40;96663.00;;;;5024592;28;20194;-82
2023/09/02 00:30:26;;;;;;;1.70;1.50;;;20.20;82.90;19.40;96666.00;;;;5023708;28;20197;-82
2023/09/02 00:32:54;;;;;;;1.60;1.50;;;20.20;82.80;19.40;96675.00;;;;5022965;28;20284;-81
2023/09/02 00:35:21;;;;;;;1.97;1.60;;;20.20;82.70;19.40;96668.00;;;;5005255;28;20247;-81
2023/09/02 00:37:48;;;;;;;1.67;1.57;;;20.20;82.70;19.40;96669.00;;;;5020045;28;20199;-82
2023/09/02 00:40:22;;;;;;;2.90;2.20;;;20.20;82.70;19.40;96665.00;;;;5019972;28;20208;-81
2023/09/02 00:42:51;;;;;;;2.13;1.80;;;20.20;82.60;19.40;96669.00;;;;5026331;28;20227;-82
2023/09/02 00:45:21;;;;;;;1.43;1.33;;;20.20;82.60;19.40;96673.00;;;;5008119;28;20221;-81
2023/09/02 00:47:50;;;;;;;1.80;1.50;;;20.20;82.60;19.30;96674.00;;;;5034259;28;20196;-81
2023/09/02 00:50:17;;;;;;;2.70;1.70;;;20.20;82.50;19.30;96675.00;;;;5026679;28;20200;-81
2023/09/02 00:52:44;;;;;;;1.67;1.57;;;20.20;82.30;19.30;96673.00;;;;5020791;28;20665;-81
2023/09/02 00:55:12;;;;;;;3.17;1.80;;;20.20;82.20;19.30;96672.00;;;;5037872;28;20302;-81
2023/09/02 00:57:42;;;;;;;1.60;1.50;;;20.20;82.30;19.30;96665.00;;;;5028173;28;20716;-81
2023/09/02 01:00:13;;;;;;;2.20;1.50;;;20.20;82.30;19.20;96666.00;;;;5024303;28;20683;-81
2023/09/02 01:02:41;;;;;;;1.60;1.47;;;20.10;83.10;19.20;96672.00;;;;5022959;28;20318;-81
2023/09/02 01:05:09;;;;;;;3.83;1.53;;;20.10;82.40;19.20;96675.00;;;;5036080;28;20215;-81
2023/09/02 01:07:37;;;;;;;1.90;1.70;;;20.10;82.50;19.20;96658.00;;;;5028567;28;20686;-81
2023/09/02 01:10:05;;;;;;;1.47;1.33;;;20.10;82.40;19.20;96661.00;;;;5027155;28;20574;-81
2023/09/02 01:12:33;;;;;;;1.60;1.50;;;20.10;82.30;19.20;96665.00;;;;5028429;28;20208;-81
2023/09/02 01:15:02;;;;;;;1.60;1.50;;;20.10;82.30;19.20;96667.00;;;;5034278;28;20279;-82
2023/09/02 01:17:29;;;;;;;2.37;1.60;;;20.10;82.00;19.10;96678.00;;;;5033263;28;20200;-81
2023/09/02 01:19:58;;;;;;;2.37;1.43;;;20.00;81.80;19.10;96671.00;;;;5028992;28;20221;-81
2023/09/02 01:22:50;;;;;;;1.60;1.30;;;20.00;82.00;19.10;96677.00;;;;5027515;28;20693;-81
2023/09/02 01:25:51;;;;;;;1.43;1.33;;;20.00;81.70;19.00;96673.00;;;;5026242;28;20221;-81
2023/09/02 01:28:28;;;;;;;1.60;1.30;;;20.00;81.70;19.00;96678.00;;;;5032415;28;20201;-81
2023/09/02 01:30:56;;;;;;;1.70;1.60;;;20.00;81.60;19.00;96671.00;;;;5029188;28;20302;-81
2023/09/02 01:33:28;;;;;;;1.30;1.20;;;19.90;81.80;19.00;96674.00;;;;5033731;28;20201;-81
2023/09/02 01:36:00;;;;;;;1.67;1.47;;;19.90;81.60;18.90;96673.00;;;;5027341;28;20206;-81
2023/09/02 01:38:29;;;;;;;1.70;1.40;;;19.90;81.80;18.90;96680.00;;;;5035965;28;20219;-81
2023/09/02 01:41:04;;;;;;;1.77;1.43;;;19.90;82.00;18.90;96679.00;;;;5020864;28;20292;-80
2023/09/02 01:43:34;;;;;;;2.37;1.50;;;19.90;82.10;18.90;96684.00;;;;5035151;28;20227;-81
2023/09/02 01:46:02;;;;;;;1.80;1.60;;;19.80;81.90;18.90;96684.00;;;;5030020;28;20221;-81
2023/09/02 01:48:31;;;;;;;1.50;1.40;;;19.80;82.10;18.90;96682.00;;;;5037611;28;20213;-81
2023/09/02 01:51:00;;;;;;;1.50;1.40;;;19.80;81.90;18.90;96684.00;;;;5028179;28;20291;-81
2023/09/02 01:53:28;;;;;;;1.77;1.67;;;19.80;81.70;18.80;96683.00;;;;5029558;28;20207;-81
2023/09/02 01:55:57;;;;;;;1.53;1.43;;;19.70;81.60;18.80;96682.00;;;;5029408;28;20218;-80
2023/09/02 01:58:25;;;;;;;1.83;1.40;;;19.70;81.80;18.80;96674.00;;;;5029696;28;20262;-80
2023/09/02 02:00:55;;;;;;;1.40;1.30;;;19.70;81.80;18.70;96676.00;;;;5032986;28;20573;-81
2023/09/02 02:03:29;;;;;;;1.70;1.60;;;19.70;81.00;18.70;96675.00;;;;5033364;28;20250;-80
2023/09/02 02:06:01;;;;;;;2.00;1.30;;;19.60;81.40;18.70;96673.00;;;;5028891;28;21038;-81
2023/09/02 02:08:44;;;;;;;2.57;1.73;;;19.60;81.70;18.70;96676.00;;;;5030201;28;20239;-80
2023/09/02 02:11:14;;;;;;;1.80;1.27;;;19.60;82.50;18.70;96677.00;;;;5031457;28;20204;-80
2023/09/02 02:13:43;;;;;;;1.57;1.43;;;19.60;81.90;18.60;96684.00;;;;5032522;28;20197;-81
2023/09/02 02:16:12;;;;;;;2.50;1.60;;;19.60;81.80;18.60;96684.00;;;;5029485;28;20223;-80
2023/09/02 02:18:39;;;;;;;2.60;1.90;;;19.60;81.80;18.60;96685.00;;;;5026276;28;20201;-81
2023/09/02 02:21:07;;;;;;;1.50;1.40;;;19.50;81.90;18.60;96676.00;;;;5018679;28;20190;-81
2023/09/02 02:23:34;;;;;;;2.80;1.70;;;19.50;81.90;18.60;96683.00;;;;5029200;28;20228;-81
2023/09/02 02:26:04;;;;;;;2.10;1.60;;;19.50;81.80;18.50;96690.00;;;;5037103;28;20215;-80
2023/09/02 02:28:31;;;;;;;1.47;1.37;;;19.50;81.80;18.50;96687.00;;;;5021243;28;20199;-81
2023/09/02 02:30:59;;;;;;;1.43;1.33;;;19.40;81.80;18.50;96681.00;;;;5024665;28;20208;-81
2023/09/02 02:33:28;;;;;;;1.30;1.20;;;19.40;81.80;18.50;96689.00;;;;5031977;28;20571;-81
2023/09/02 02:35:56;;;;;;;1.60;1.50;;;19.40;82.00;18.50;96684.00;;;;5025720;28;20229;-81
2023/09/02 02:38:24;;;;;;;1.50;1.40;;;19.40;82.20;18.50;96682.00;;;;5035690;28;20280;-81
2023/09/02 02:40:51;;;;;;;2.20;1.40;;;19.40;82.40;18.50;96680.00;;;;5027496;28;20357;-81
2023/09/02 02:43:24;;;;;;;1.40;1.17;;;19.40;82.50;18.50;96689.00;;;;5029443;28;20351;-81
2023/09/02 02:45:53;;;;;;;1.37;1.20;;;19.40;82.50;18.50;96681.00;;;;5035158;28;20582;-81
2023/09/02 02:48:23;;;;;;;1.93;1.10;;;19.40;82.50;18.50;96689.00;;;;5027150;28;20192;-81
2023/09/02 02:50:52;;;;;;;1.40;1.40;;;19.40;82.60;18.50;96691.00;;;;5026386;28;20211;-81
2023/09/02 02:53:19;;;;;;;2.00;1.30;;;19.40;82.50;18.50;96693.00;;;;5022782;28;20194;-81
2023/09/02 02:55:46;;;;;;;2.73;1.70;;;19.30;82.30;18.50;96697.00;;;;5026749;28;20581;-81
2023/09/02 02:58:15;;;;;;;1.70;1.57;;;19.30;82.90;18.50;96693.00;;;;5029985;28;20277;-81
2023/09/02 03:00:46;;;;;;;2.13;1.73;;;19.30;82.30;18.40;96704.00;;;;5027748;28;20186;-81
2023/09/02 03:03:14;;;;;;;1.60;1.17;;;19.30;82.50;18.40;96698.00;;;;5026762;28;20201;-80
2023/09/02 03:05:42;;;;;;;1.50;1.17;;;19.30;82.40;18.40;96694.00;;;;5026885;28;20205;-80
2023/09/02 03:08:11;;;;;;;2.57;1.40;;;19.30;82.30;18.40;96702.00;;;;5024920;28;20278;-80
2023/09/02 03:10:38;;;;;;;1.40;1.30;;;19.30;82.30;18.40;96701.00;;;;5025852;28;20547;-80
2023/09/02 03:13:07;;;;;;;1.20;1.20;;;19.30;82.30;18.40;96702.00;;;;5025165;28;20232;-80
2023/09/02 03:15:34;;;;;;;1.80;1.30;;;19.30;82.20;18.40;96707.00;;;;5006978;28;20214;-81
2023/09/02 03:18:01;;;;;;;2.30;1.50;;;19.30;82.00;18.40;96707.00;;;;5006310;28;20190;-81
2023/09/02 03:20:29;;;;;;;2.10;1.40;;;19.30;82.80;18.30;96699.00;;;;5015778;28;20202;-80
2023/09/02 03:22:56;;;;;;;1.97;1.40;;;19.20;82.00;18.30;96704.00;;;;5038971;28;20198;-80
2023/09/02 03:25:27;;;;;;;2.03;1.30;;;19.20;82.00;18.30;96713.00;;;;5024789;28;20222;-80
2023/09/02 03:27:55;;;;;;;1.93;1.23;;;19.20;81.70;18.30;96713.00;;;;5027692;28;20194;-80
2023/09/02 03:30:22;;;;;;;2.10;1.60;;;19.20;81.90;18.20;96710.00;;;;5018639;28;20198;-80
2023/09/02 03:32:49;;;;;;;3.83;1.10;;;19.20;81.80;18.20;96697.00;;;;5029974;28;20205;-80
2023/09/02 03:35:17;;;;;;;1.20;1.10;;;19.10;81.70;18.20;96700.00;;;;5031007;28;20220;-80
2023/09/02 03:37:44;;;;;;;1.43;1.20;;;19.10;81.80;18.20;96701.00;;;;5028409;28;20213;-80
2023/09/02 03:40:12;;;;;;;1.67;1.53;;;19.10;81.90;18.20;96700.00;;;;5033955;28;20198;-80
2023/09/02 03:42:43;;;;;;;3.13;1.43;;;19.10;82.00;18.20;96695.00;;;;5027812;28;20213;-80
2023/09/02 03:45:11;;;;;;;1.70;1.20;;;19.10;82.10;18.10;96695.00;;;;5034863;28;20225;-80
2023/09/02 03:47:38;;;;;;;1.43;1.30;;;19.10;82.10;18.10;96687.00;;;;5027762;28;20194;-80
2023/09/02 03:50:10;;;;;;;1.40;1.20;;;19.10;82.00;18.10;96691.00;;;;5031622;28;20677;-80
2023/09/02 03:52:37;;;;;;;1.47;1.37;;;19.00;81.70;18.10;96696.00;;;;5030009;28;20575;-80
2023/09/02 03:55:06;;;;;;;2.87;0.90;;;19.00;81.50;18.10;96697.00;;;;5027823;28;20216;-80
2023/09/02 03:57:33;;;;;;;1.30;1.20;;;19.00;81.40;18.00;96687.00;;;;5019882;28;20197;-80
2023/09/02 04:00:03;;;;;;;2.37;1.47;;;19.00;81.50;18.00;96683.00;;;;5018099;28;20195;-80
2023/09/02 04:02:30;;;;;;;2.80;1.50;;;19.00;81.60;18.00;96689.00;;;;5026735;28;20197;-80
2023/09/02 04:04:58;;;;;;;1.30;1.10;;;19.00;81.70;18.00;96694.00;;;;5021486;28;20218;-80
2023/09/02 04:07:25;;;;;;;1.57;1.47;;;18.90;81.40;17.90;96695.00;;;;5040097;28;20197;-80
2023/09/02 04:09:53;;;;;;;1.83;1.40;;;18.90;81.30;17.90;96704.00;;;;5021082;28;20215;-81
2023/09/02 04:12:20;;;;;;;1.57;1.17;;;18.90;81.30;17.90;96709.00;;;;5029032;28;20309;-80
2023/09/02 04:14:47;;;;;;;2.60;1.40;;;19.00;81.40;17.90;96713.00;;;;5031921;28;20274;-81
2023/09/02 04:17:16;;;;;;;1.67;1.53;;;18.80;81.40;17.80;96710.00;;;;5025908;28;20196;-80
2023/09/02 04:19:43;;;;;;;2.63;1.50;;;18.80;81.40;17.80;96711.00;;;;5036116;28;20194;-80
2023/09/02 04:22:11;;;;;;;2.27;1.00;;;18.80;81.50;17.80;96720.00;;;;5024204;28;20208;-80
2023/09/02 04:24:38;;;;;;;2.03;1.40;;;18.80;82.20;17.80;96719.00;;;;5020968;28;20221;-80
2023/09/02 04:27:06;;;;;;;1.03;1.03;;;18.70;81.60;17.80;96721.00;;;;5027259;28;20226;-80
2023/09/02 04:29:34;;;;;;;1.30;1.20;;;18.70;81.80;17.80;96723.00;;;;5033595;28;20259;-80
2023/09/02 04:32:02;;;;;;;1.27;1.17;;;18.70;81.70;17.80;96721.00;;;;5021156;28;20189;-80
2023/09/02 04:34:31;;;;;;;1.90;1.13;;;18.70;81.60;17.70;96723.00;;;;5028933;28;20659;-80
2023/09/02 04:36:59;;;;;;;1.40;1.27;;;18.70;81.40;17.70;96721.00;;;;5031482;28;20252;-80
2023/09/02 04:39:26;;;;;;;1.23;1.20;;;18.70;81.30;17.70;96732.00;;;;5031939;28;20277;-80
2023/09/02 04:41:57;;;;;;;2.03;1.30;;;18.70;81.30;17.70;96727.00;;;;5032425;28;20209;-80
2023/09/02 04:44:24;;;;;;;3.20;1.40;;;18.60;82.10;17.60;96726.00;;;;5024315;28;20228;-80
2023/09/02 04:46:52;;;;;;;2.73;1.30;;;18.60;82.20;17.60;96726.00;;;;5029708;28;20238;-80
2023/09/02 04:49:19;;;;;;;1.30;1.20;;;18.60;81.70;17.60;96731.00;;;;5032108;28;20190;-80
2023/09/02 04:51:49;;;;;;;2.90;1.40;;;18.60;81.90;17.60;96734.00;;;;5032508;28;20216;-80
2023/09/02 04:54:17;;;;;;;1.23;1.23;;;18.60;81.80;17.60;96725.00;;;;5040693;28;20228;-80
2023/09/02 04:56:45;;;;;;;1.57;1.30;;;18.60;81.90;17.60;96725.00;;;;5029131;28;20213;-80
2023/09/02 04:59:12;;;;;;;1.37;1.27;;;18.60;81.80;17.60;96721.00;;;;5028647;28;20273;-80
2023/09/02 05:01:39;;;;;;;1.30;1.20;;;18.60;81.90;17.60;96727.00;;;;5030073;28;20277;-81
2023/09/02 05:04:06;;;;;;;2.40;1.47;;;18.50;81.80;17.60;96736.00;;;;5041041;28;20224;-81
2023/09/02 05:06:33;;;;;;;2.60;1.33;;;18.50;81.70;17.50;96732.00;;;;5031598;28;20244;-80
2023/09/02 05:09:03;;;;;;;1.93;1.47;;;18.50;81.80;17.50;96731.00;;;;5033967;28;20257;-80
2023/09/02 05:11:30;;;;;;;1.47;1.37;;;18.50;81.80;17.60;96740.00;;;;5007853;28;20197;-80
2023/09/02 05:13:57;;;;;;;1.60;1.50;;;18.50;81.90;17.50;96746.00;;;;5024214;28;20333;-80
2023/09/02 05:16:25;;;;;;;1.67;1.30;;;18.50;81.90;17.50;96748.00;;;;5033515;28;20296;-80
2023/09/02 05:18:52;;;;;;;1.30;1.20;;;18.50;82.10;17.50;96756.00;;;;5019965;28;20199;-80
2023/09/02 05:21:19;;;;;;;2.40;1.43;;;18.50;82.30;17.50;96754.00;;;;5030280;28;20187;-80
2023/09/02 05:23:47;;;;;;;1.60;1.43;;;18.50;82.50;17.60;96757.00;;;;5029801;28;20261;-80
2023/09/02 05:26:15;;;;;;;1.50;1.40;;;18.50;82.70;17.60;96756.00;;;;5032468;28;20277;-80
2023/09/02 05:28:42;;;;;;;1.50;1.40;;;18.50;82.80;17.60;96751.00;;;;5035352;28;20190;-80
2023/09/02 05:31:09;;;;;;;1.67;1.50;;;18.50;83.00;17.60;96755.00;;;;5028484;28;20217;-80
2023/09/02 05:33:38;;;;;;;2.97;1.53;;;18.50;83.10;17.60;96756.00;;;;5019791;28;20229;-80
2023/09/02 05:36:06;;;;;;;3.23;2.00;;;18.50;83.20;17.60;96755.00;;;;5031963;28;20248;-80
2023/09/02 05:38:33;;;;;;;2.63;1.83;;;18.50;83.10;17.60;96765.00;;;;5033607;28;20281;-80
2023/09/02 05:41:01;;;;;;;2.63;1.80;;;18.60;83.30;17.70;96763.00;;;;5040555;28;20189;-80
2023/09/02 05:43:30;;;;;;;3.37;2.10;;;18.60;83.40;17.70;96773.00;;;;5021590;28;20278;-80
2023/09/02 05:46:01;;;;;;;2.93;2.13;;;18.60;83.60;17.70;96766.00;;;;5042041;28;20277;-80
2023/09/02 05:48:29;;;;;;;2.20;2.00;;;18.60;83.80;17.80;96776.00;;;;5032184;28;20224;-80
2023/09/02 05:50:57;;;;;;;2.07;1.93;;;18.60;84.00;17.80;96770.00;;;;5028316;28;20252;-80
2023/09/02 05:53:25;;;;;;;2.77;2.47;;;18.70;84.30;17.90;96770.00;;;;5026494;28;20198;-80
2023/09/02 05:55:56;;;;;;;2.27;2.07;;;18.70;84.60;17.90;96777.00;;;;5010098;28;20221;-80
2023/09/02 05:58:24;;;;;;;2.00;1.80;;;18.70;84.80;18.00;96781.00;;;;5026542;28;20280;-80
2023/09/02 06:00:53;;;;;;;2.37;2.17;;;18.80;85.00;18.00;96776.00;;;;5031763;28;20748;-81
2023/09/02 06:03:20;;;;;;;2.20;2.00;;;18.80;85.20;18.10;96778.00;;;;5031482;28;20202;-80
2023/09/02 06:05:47;;;;;;;2.27;2.07;;;18.90;85.30;18.10;96779.00;;;;5026987;28;20696;-80
2023/09/02 06:08:15;;;;;;;4.37;1.93;;;18.90;86.10;18.20;96775.00;;;;5026871;28;20214;-81
2023/09/02 06:10:42;;;;;;;2.53;2.33;;;19.00;86.40;18.30;96782.00;;;;5027092;28;20612;-81
2023/09/02 06:13:09;;;;;;;2.40;2.20;;;19.00;85.80;18.30;96782.00;;;;5034022;28;20209;-80
2023/09/02 06:15:36;;;;;;;2.53;2.17;;;19.00;85.80;18.40;96781.00;;;;5026628;28;20218;-81
2023/09/02 06:18:07;;;;;;;2.33;2.13;;;19.10;86.00;18.40;96776.00;;;;5031102;28;20196;-81
2023/09/02 06:20:37;;;;;;;3.43;2.17;;;19.10;86.00;18.50;96779.00;;;;5028064;28;20277;-80
2023/09/02 06:23:05;;;;;;;2.30;2.10;;;19.20;86.10;18.50;96777.00;;;;5032274;28;20198;-80
2023/09/02 06:25:34;;;;;;;2.60;2.40;;;19.30;86.20;18.60;96773.00;;;;5015925;28;20671;-81
2023/09/02 06:28:01;;;;;;;2.03;1.93;;;19.30;86.20;18.70;96783.00;;;;5026980;28;20865;-80
2023/09/02 06:30:29;;;;;;;2.70;2.07;;;19.40;86.20;18.70;96775.00;;;;5034653;28;20651;-80
2023/09/02 06:32:56;;;;;;;2.63;2.43;;;19.40;86.30;18.80;96775.00;;;;5036950;28;20204;-80
2023/09/02 06:35:25;;;;;;;2.30;2.10;;;19.50;86.40;18.80;96787.00;;;;5025584;28;20218;-80
2023/09/02 06:37:52;;;;;;;2.53;2.10;;;19.50;86.50;18.90;96786.00;;;;5031857;28;20190;-80
2023/09/02 06:40:19;;;;;;;2.33;2.13;;;19.60;86.60;19.00;96785.00;;;;5032553;28;20285;-81
2023/09/02 06:42:46;;;;;;;2.43;2.23;;;19.60;86.70;19.00;96788.00;;;;5028608;28;20260;-80
2023/09/02 06:45:14;;;;;;;2.00;1.90;;;19.70;86.80;19.10;96797.00;;;;5029090;28;20285;-80
2023/09/02 06:47:41;;;;;;;2.30;2.10;;;19.70;86.90;19.10;96794.00;;;;5030376;28;20281;-80
2023/09/02 06:50:09;;;;;;;1.93;1.83;;;19.80;87.00;19.20;96804.00;;;;5035433;28;20221;-80
2023/09/02 06:52:38;;;;;;;2.30;2.10;;;19.90;87.20;19.30;96801.00;;;;5036239;28;20262;-80
2023/09/02 06:55:07;;;;;;;1.90;1.80;;;19.90;87.30;19.40;96799.00;;;;5029807;28;20222;-80
2023/09/02 06:57:34;;;;;;;2.13;1.93;;;20.00;87.40;19.40;96796.00;;;;5033265;28;20254;-80
2023/09/02 07:00:02;;;;;;;2.10;1.90;;;20.10;87.40;19.50;96800.00;;;;5030885;28;20208;-80
2023/09/02 07:02:29;;;;;;;2.30;2.10;;;20.10;87.40;19.60;96799.00;;;;5032505;28;20190;-81
2023/09/02 07:04:56;;;;;;;4.83;2.07;;;20.20;88.30;19.60;96814.00;;;;5035416;28;20284;-81
2023/09/02 07:07:25;;;;;;;2.43;2.23;;;20.30;88.30;19.70;96809.00;;;;5042143;28;20215;-81
2023/09/02 07:09:54;;;;;;;2.30;2.10;;;20.30;87.50;19.80;96807.00;;;;5029696;28;20217;-81
2023/09/02 07:12:21;;;;;;;1.80;1.70;;;20.40;87.60;19.90;96809.00;;;;5041373;28;20257;-81
2023/09/02 07:14:48;;;;;;;2.30;2.10;;;20.50;87.80;20.00;96812.00;;;;5034204;28;20202;-81
2023/09/02 07:17:16;;;;;;;1.90;1.80;;;20.60;88.00;20.10;96810.00;;;;5027299;28;20620;-81
2023/09/02 07:19:42;;;;;;;2.03;1.87;;;20.60;88.10;20.20;96812.00;;;;5033918;28;20261;-81
2023/09/02 07:22:09;;;;;;;2.47;1.97;;;20.70;88.10;20.30;96816.00;;;;5035743;28;20209;-80
2023/09/02 07:24:37;;;;;;;2.40;1.70;;;20.80;88.00;20.40;96815.00;;;;5036812;28;20197;-80
2023/09/02 07:27:06;;;;;;;3.10;2.90;;;20.90;88.20;20.50;96819.00;;;;5026195;28;20593;-81
2023/09/02 07:29:34;;;;;;;2.47;2.27;;;21.00;88.10;20.70;96819.00;;;;5034393;28;20185;-80
2023/09/02 07:32:02;;;;;;;2.80;2.60;;;21.10;88.40;20.80;96821.00;;;;5035850;28;20277;-81
2023/09/02 07:34:29;;;;;;;2.80;2.50;;;21.20;88.50;21.00;96816.00;;;;5027872;28;20707;-80
2023/09/02 07:36:57;;;;;;;2.37;2.17;;;21.40;88.40;21.10;96822.00;;;;5038300;28;20272;-81
2023/09/02 07:39:24;;;;;;;3.27;2.97;;;21.50;88.30;21.20;96814.00;;;;5036175;28;20201;-81
2023/09/02 07:41:51;;;;;;;5.10;2.40;;;21.60;88.20;21.30;96813.00;;;;5040421;28;20285;-81
2023/09/02 07:44:19;;;;;;;2.23;2.13;;;21.80;88.10;21.50;96819.00;;;;5022593;28;20205;-81
2023/09/02 07:46:47;;;;;;;1.93;1.83;;;21.90;88.00;21.60;96824.00;;;;5031280;28;20231;-81
2023/09/02 07:49:14;;;;;;;2.30;2.10;;;22.00;87.50;21.70;96837.00;;;;5034501;28;20199;-81
2023/09/02 07:51:43;;;;;;;3.00;2.53;;;22.10;87.30;21.80;96834.00;;;;5029050;28;20202;-81
2023/09/02 07:54:10;;;;;;;2.63;2.00;;;22.30;87.20;21.90;96836.00;;;;5033643;28;20194;-81
2023/09/02 07:56:38;;;;;;;3.03;2.80;;;22.40;87.20;22.10;96833.00;;;;5018711;28;20219;-81
2023/09/02 07:59:06;;;;;;;3.30;3.00;;;22.50;87.90;22.20;96845.00;;;;5033193;28;20199;-81
2023/09/02 08:01:34;;;;;;;3.70;2.93;;;22.60;87.00;22.30;96837.00;;;;5031790;28;20208;-81
2023/09/02 08:04:01;;;;;;;2.20;2.00;;;22.70;86.70;22.40;96850.00;;;;5029960;28;20281;-81
2023/09/02 08:06:28;;;;;;;1.60;1.50;;;22.90;86.40;22.60;96848.00;;;;5026183;28;20229;-81
2023/09/02 08:08:55;;;;;;;1.57;1.47;;;23.00;86.10;22.70;96851.00;;;;5027119;28;20266;-81
2023/09/02 08:11:23;;;;;;;3.93;1.90;;;23.10;86.10;22.80;96852.00;;;;5032795;28;20690;-81
2023/09/02 08:13:50;;;;;;;2.03;1.50;;;23.20;86.80;22.90;96855.00;;;;5030016;28;20209;-81
2023/09/02 08:16:17;;;;;;;1.70;1.60;;;23.40;86.60;23.00;96860.00;;;;5026761;28;20217;-82
2023/09/02 08:18:46;;;;;;;2.17;1.70;;;23.40;85.40;23.10;96854.00;;;;5031056;28;20317;-81
2023/09/02 08:21:13;;;;;;;1.87;1.60;;;23.50;84.70;23.30;96854.00;;;;5030185;28;20207;-80
2023/09/02 08:23:41;;;;;;;1.57;1.47;;;23.70;84.80;23.40;96849.00;;;;5023014;28;20298;-81
2023/09/02 08:26:13;;;;;;;1.97;1.77;;;23.80;84.60;23.50;96854.00;;;;5025892;28;20224;-81
2023/09/02 08:28:40;;;;;;;1.70;1.60;;;23.90;83.90;23.60;96867.00;;;;5036378;28;20255;-80
2023/09/02 08:31:11;;;;;;;1.77;1.40;;;24.00;84.50;23.70;96869.00;;;;5028361;28;20305;-81
2023/09/02 08:33:38;;;;;;;2.23;1.43;;;24.10;84.50;23.80;96868.00;;;;5038925;28;20205;-81
2023/09/02 08:36:13;;;;;;;1.83;1.27;;;24.20;84.10;23.90;96871.00;;;;5028688;28;20292;-81
2023/09/02 08:38:41;;;;;;;1.63;1.53;;;24.30;84.10;24.00;96875.00;;;;5030148;28;20197;-81
2023/09/02 08:41:11;;;;;;;1.70;1.47;;;24.40;83.30;24.10;96871.00;;;;5032864;28;20285;-81
2023/09/02 08:43:39;;;;;;;1.27;1.17;;;24.50;83.30;24.30;96878.00;;;;5039904;28;20277;-81
2023/09/02 08:46:10;;;;;;;1.63;1.20;;;24.60;83.60;24.40;96876.00;;;;5029924;28;20616;-81
2023/09/02 08:48:43;;;;;;;1.20;1.10;;;24.70;83.80;24.50;96872.00;;;;5021209;28;20266;-81
2023/09/02 08:51:13;;;;;;;1.20;1.10;;;24.90;82.80;24.60;96880.00;;;;5029233;28;20241;-82
2023/09/02 08:53:43;;;;;;;2.40;1.67;;;25.00;82.50;24.70;96869.00;;;;5019023;28;20206;-81
2023/09/02 08:56:11;;;;;;;2.00;1.00;;;25.10;83.00;24.90;96877.00;;;;5019878;28;20289;-82
2023/09/02 08:58:40;;;;;;;1.37;1.27;;;25.20;83.20;25.00;96885.00;;;;5029919;28;20281;-81
2023/09/02 09:01:09;;;;;;;1.43;1.33;;;25.30;82.60;25.10;96880.00;;;;5036315;28;20205;-81
2023/09/02 09:03:38;;;;;;;1.50;1.40;;;25.40;82.80;25.20;96880.00;;;;5029629;28;20238;-81
2023/09/02 09:06:12;;;;;;;1.20;1.10;;;25.60;82.70;25.30;96886.00;;;;5023786;28;20230;-81
2023/09/02 09:08:42;;;;;;;1.03;0.93;;;25.70;81.30;25.50;96888.00;;;;5021070;28;20270;-82
2023/09/02 09:11:12;;;;;;;1.53;1.30;;;25.80;82.30;25.60;96894.00;;;;5027987;28;20236;-82
2023/09/02 09:13:45;;;;;;;1.30;1.20;;;25.90;81.50;25.70;96894.00;;;;5025864;28;20272;-81
2023/09/02 09:16:20;;;;;;;0.90;0.90;;;26.00;79.40;25.80;96894.00;;;;5030702;28;20227;-82
2023/09/02 09:18:50;;;;;;;1.30;1.10;;;26.20;79.90;26.00;96892.00;;;;5021129;28;20193;-82
2023/09/02 09:21:19;;;;;;;1.15;1.08;;;26.30;80.50;26.10;96899.00;;;;5025205;28;20228;-82
2023/09/02 09:23:48;;;;;;;1.75;0.82;;;26.40;79.90;26.20;96900.00;;;;5022755;28;20198;-81
2023/09/02 09:26:16;;;;;;;1.17;0.77;;;26.50;80.30;26.30;96902.00;;;;5041281;28;20249;-81
2023/09/02 09:28:52;;;;;;;1.20;1.10;;;26.60;80.00;26.40;96895.00;;;;5036792;28;20201;-82
2023/09/02 09:31:20;;;;;;;0.90;0.85;;;26.80;79.20;26.50;96897.00;;;;5015755;28;20221;-82
2023/09/02 09:33:54;;;;;;;1.30;1.20;;;26.80;79.10;26.60;96902.00;;;;5036453;28;20215;-82
2023/09/02 09:36:23;;;;;;;1.13;0.70;;;27.00;77.60;26.70;96897.00;;;;5036178;28;20236;-80
2023/09/02 09:38:56;;;;;;;0.82;0.80;;;27.10;78.10;26.80;96904.00;;;;5038725;28;20280;-81
2023/09/02 09:41:25;;;;;;;1.13;1.02;;;27.20;77.00;26.90;96901.00;;;;5034415;28;20608;-81
2023/09/02 09:44:06;;;;;;;1.63;0.90;;;27.20;76.00;27.00;96898.00;;;;5030301;28;20212;-81
2023/09/02 09:46:35;;;;;;;1.58;0.80;;;27.40;74.60;27.10;96902.00;;;;5021853;28;20229;-81
2023/09/02 09:49:03;;;;;;;1.00;0.90;;;27.50;76.80;27.20;96899.00;;;;5022416;28;20571;-81
2023/09/02 09:51:32;;;;;;;0.70;0.70;;;27.60;76.50;27.30;96900.00;;;;5021874;28;20210;-82
2023/09/02 09:53:59;;;;;;;1.67;0.80;;;27.60;76.00;27.40;96908.00;;;;5051210;28;20193;-82
2023/09/02 09:56:28;;;;;;;1.15;1.05;;;27.70;76.20;27.50;96909.00;;;;5034771;28;20277;-82
2023/09/02 09:58:55;;;;;;;0.73;0.73;;;27.80;75.00;27.60;96909.00;;;;5037429;28;20197;-81
2023/09/02 10:01:24;;;;;;;0.77;0.77;;;27.90;73.80;27.60;96907.00;;;;5053671;28;20467;-82
2023/09/02 10:03:55;;;;;;;1.15;0.75;;;28.00;74.20;27.70;96910.00;;;;5042842;28;20201;-82
2023/09/02 10:06:22;;;;;;;0.88;0.85;;;28.10;73.60;27.80;96907.00;;;;5047506;28;20227;-81
2023/09/02 10:08:53;;;;;;;1.27;1.00;;;28.20;73.30;27.80;96905.00;;;;5035264;28;20265;-80
2023/09/02 10:11:24;;;;;;;1.05;0.90;;;28.20;73.20;27.90;96898.00;;;;5028497;28;20607;-82
2023/09/02 10:13:53;;;;;;;4.28;1.10;;;28.30;73.80;28.00;96906.00;;;;5018800;28;20202;-82
2023/09/02 10:16:22;;;;;;;0.93;0.88;;;28.40;73.70;28.00;96906.00;;;;5029819;28;20304;-82
2023/09/02 10:18:51;;;;;;;0.60;0.60;;;28.40;73.80;28.10;96903.00;;;;5027112;28;20642;-82
2023/09/02 10:21:20;;;;;;;1.23;0.90;;;28.40;73.60;28.20;96902.00;;;;5038135;28;20572;-81
2023/09/02 10:23:56;;;;;;;0.60;0.60;;;28.50;72.30;28.20;96904.00;;;;5028856;28;20213;-83
2023/09/02 10:26:33;;;;;;;0.50;0.50;;;28.60;70.40;28.30;96911.00;;;;5037103;28;20231;-81
2023/09/02 10:29:07;;;;;;;0.80;0.80;;;28.60;72.00;28.40;96905.00;;;;5014533;28;20193;-82
2023/09/02 10:31:40;;;;;;;0.70;0.70;;;28.70;72.40;28.50;96898.00;;;;5021853;28;20197;-81
2023/09/02 10:34:15;;;;;;;1.40;0.80;;;28.80;72.20;28.50;96904.00;;;;5022409;28;20327;-82
2023/09/02 10:36:51;;;;;;;1.60;0.82;;;28.90;72.40;28.60;96897.00;;;;5034625;28;20287;-82
2023/09/02 10:39:31;;;;;;;0.88;0.77;;;28.90;71.70;28.70;96904.00;;;;5022021;28;20727;-83
2023/09/02 10:42:01;;;;;;;1.35;0.82;;;29.00;71.00;28.70;96909.00;;;;5032375;28;20667;-82
2023/09/02 10:44:31;;;;;;;0.60;0.60;;;29.10;71.60;28.80;96909.00;;;;5032747;28;20280;-82
2023/09/02 10:46:59;;;;;;;1.10;1.00;;;29.10;70.40;28.90;96910.00;;;;5023201;28;20588;-82
2023/09/02 10:49:28;;;;;;;4.82;0.90;;;29.20;69.20;28.90;96910.00;;;;5024887;28;20198;-82
2023/09/02 10:51:56;;;;;;;0.98;0.70;;;29.20;69.00;29.00;96911.00;;;;5022232;28;20198;-82
2023/09/02 10:54:24;;;;;;;0.80;0.77;;;29.30;69.40;29.00;96912.00;;;;5028083;28;20685;-82
2023/09/02 10:56:53;;;;;;;1.52;1.05;;;29.30;69.10;29.00;96905.00;;;;5014209;28;20228;-82
2023/09/02 10:59:32;;;;;;;1.67;0.80;;;29.30;68.60;29.00;96905.00;;;;5020310;28;20602;-82
2023/09/02 11:01:59;;;;;;;0.80;0.80;;;29.30;66.60;29.00;96914.00;;;;5015913;28;20193;-82